createdAt,value
2023-05-05T00:00:00.651Z,12.50
2023-05-05T00:02:32.521Z,12.50
2023-05-05T00:05:04.229Z,12.50
2023-05-05T00:07:37.321Z,12.50
2023-05-05T00:10:10.543Z,12.40
2023-05-05T00:12:42.191Z,12.40
2023-05-05T00:15:14.394Z,12.30
2023-05-05T00:17:46.345Z,12.30
2023-05-05T00:20:18.207Z,12.20
2023-05-05T00:22:51.366Z,12.20
2023-05-05T00:25:23.279Z,12.10
2023-05-05T00:27:55.282Z,12.10
2023-05-05T00:30:27.189Z,12.20
2023-05-05T00:32:59.268Z,12.10
2023-05-05T00:35:31.065Z,12.10
2023-05-05T00:38:04.136Z,12.00
2023-05-05T00:40:35.999Z,11.80
2023-05-05T00:43:08.195Z,11.80
2023-05-05T00:45:42.763Z,12.00
2023-05-05T00:48:14.952Z,11.90
2023-05-05T00:50:48.202Z,11.80
2023-05-05T00:53:21.283Z,11.80
2023-05-05T00:55:53.556Z,11.80
2023-05-05T00:58:25.610Z,11.80
2023-05-05T01:00:57.402Z,11.70
2023-05-05T01:03:29.334Z,11.70
2023-05-05T01:06:11.113Z,11.60
2023-05-05T01:08:56.564Z,11.70
2023-05-05T01:11:40.725Z,11.60
2023-05-05T01:14:23.993Z,11.60
2023-05-05T01:17:07.976Z,11.70
2023-05-05T01:20:15.579Z,11.60
2023-05-05T01:22:54.908Z,11.50
2023-05-05T01:25:50.388Z,11.50
2023-05-05T01:28:38.223Z,11.50
2023-05-05T01:31:28.037Z,11.50
2023-05-05T01:34:08.426Z,11.50
2023-05-05T01:36:45.532Z,11.50
2023-05-05T01:39:21.862Z,11.40
2023-05-05T01:42:03.600Z,11.40
2023-05-05T01:44:37.343Z,11.40
2023-05-05T01:47:10.978Z,11.30
2023-05-05T01:49:47.205Z,11.30
2023-05-05T01:52:21.551Z,11.20
2023-05-05T01:54:58.464Z,11.20
2023-05-05T01:57:34.121Z,11.20
2023-05-05T02:00:09.813Z,11.20
2023-05-05T02:02:46.326Z,11.20
2023-05-05T02:05:23.539Z,11.20
2023-05-05T02:07:59.963Z,11.20
2023-05-05T02:10:33.451Z,11.20
2023-05-05T02:13:06.768Z,11.10
2023-05-05T02:15:41.412Z,11.10
2023-05-05T02:18:15.157Z,11.10
2023-05-05T02:20:49.605Z,11.20
2023-05-05T02:23:22.080Z,11.10
2023-05-05T02:26:00.801Z,11.10
2023-05-05T02:28:48.136Z,11.10
2023-05-05T02:31:24.567Z,11.10
2023-05-05T02:34:01.453Z,10.90
2023-05-05T02:36:38.542Z,10.90
2023-05-05T02:39:20.766Z,10.90
2023-05-05T02:41:56.192Z,11.00
2023-05-05T02:44:30.060Z,10.90
2023-05-05T02:47:03.810Z,11.00
2023-05-05T02:49:35.945Z,11.00
2023-05-05T02:52:09.163Z,11.00
2023-05-05T02:54:41.215Z,10.80
2023-05-05T02:57:20.897Z,10.90
2023-05-05T03:00:01.968Z,10.80
2023-05-05T03:02:44.436Z,10.70
2023-05-05T03:05:23.258Z,10.70
2023-05-05T03:08:03.163Z,10.70
2023-05-05T03:11:00.021Z,10.70
2023-05-05T03:13:35.484Z,10.70
2023-05-05T03:16:10.026Z,10.70
2023-05-05T03:18:45.362Z,10.60
2023-05-05T03:21:17.353Z,10.70
2023-05-05T03:23:51.140Z,10.70
2023-05-05T03:26:22.822Z,10.70
2023-05-05T03:28:54.728Z,10.60
2023-05-05T03:31:28.283Z,10.60
2023-05-05T03:33:59.941Z,10.60
2023-05-05T03:36:32.946Z,10.50
2023-05-05T03:39:06.232Z,10.50
2023-05-05T03:41:38.077Z,10.50
2023-05-05T03:44:09.869Z,10.50
2023-05-05T03:46:41.684Z,10.40
2023-05-05T03:49:13.591Z,10.40
2023-05-05T03:51:45.558Z,10.40
2023-05-05T03:54:19.241Z,10.40
2023-05-05T03:56:51.074Z,10.40
2023-05-05T03:59:23.020Z,10.50
2023-05-05T04:01:54.859Z,10.40
2023-05-05T04:04:26.860Z,10.40
2023-05-05T04:06:58.560Z,10.30
2023-05-05T04:09:31.788Z,10.40
2023-05-05T04:12:03.578Z,10.30
2023-05-05T04:14:35.813Z,10.40
2023-05-05T04:17:07.524Z,10.30
2023-05-05T04:19:39.337Z,10.40
2023-05-05T04:22:11.372Z,10.30
2023-05-05T04:24:44.298Z,10.20
2023-05-05T04:27:16.379Z,10.20
2023-05-05T04:29:48.150Z,10.20
2023-05-05T04:32:20.014Z,10.10
2023-05-05T04:34:51.816Z,10.10
2023-05-05T04:37:23.580Z,10.10
2023-05-05T04:39:56.982Z,10.20
2023-05-05T04:42:28.847Z,10.20
2023-05-05T04:45:00.628Z,10.20
2023-05-05T04:47:32.555Z,10.20
2023-05-05T04:50:04.415Z,10.20
2023-05-05T04:52:36.247Z,10.20
2023-05-05T04:55:11.608Z,10.20
2023-05-05T04:57:43.373Z,10.10
2023-05-05T05:00:17.664Z,10.20
2023-05-05T05:02:49.621Z,10.20
2023-05-05T05:05:21.546Z,10.10
2023-05-05T05:07:53.253Z,10.10
2023-05-05T05:10:26.424Z,10.00
2023-05-05T05:12:58.371Z,10.00
2023-05-05T05:15:31.122Z,10.00
2023-05-05T05:18:03.013Z,10.10
2023-05-05T05:20:35.389Z,10.10
2023-05-05T05:23:07.189Z,10.20
2023-05-05T05:25:40.370Z,10.10
2023-05-05T05:28:12.284Z,10.10
2023-05-05T05:30:44.067Z,10.20
2023-05-05T05:33:15.914Z,10.20
2023-05-05T05:35:47.820Z,10.30
2023-05-05T05:38:19.712Z,10.40
2023-05-05T05:40:54.629Z,10.50
2023-05-05T05:43:26.183Z,10.50
2023-05-05T05:45:58.064Z,10.60
2023-05-05T05:48:29.965Z,10.60
2023-05-05T05:51:02.440Z,10.50
2023-05-05T05:53:35.929Z,10.50
2023-05-05T05:56:11.051Z,10.60
2023-05-05T05:58:42.914Z,10.60
2023-05-05T06:01:14.807Z,10.70
2023-05-05T06:03:46.735Z,10.70
2023-05-05T06:06:18.407Z,10.80
2023-05-05T06:08:51.813Z,10.80
2023-05-05T06:11:25.078Z,10.80
2023-05-05T06:13:56.884Z,10.90
2023-05-05T06:16:30.333Z,10.90
2023-05-05T06:19:02.196Z,11.00
2023-05-05T06:21:34.126Z,11.00
2023-05-05T06:24:06.017Z,11.10
2023-05-05T06:26:39.207Z,11.20
2023-05-05T06:29:12.348Z,11.20
2023-05-05T06:31:46.230Z,11.30
2023-05-05T06:34:18.199Z,11.30
2023-05-05T06:36:50.158Z,11.40
2023-05-05T06:39:21.762Z,11.50
2023-05-05T06:41:54.835Z,11.70
2023-05-05T06:44:28.223Z,11.70
2023-05-05T06:47:00.681Z,11.80
2023-05-05T06:49:32.645Z,11.90
2023-05-05T06:52:04.619Z,12.00
2023-05-05T06:54:36.424Z,12.00
2023-05-05T06:57:09.411Z,12.10
2023-05-05T06:59:42.637Z,12.10
2023-05-05T07:02:14.526Z,12.10
2023-05-05T07:04:46.545Z,12.10
2023-05-05T07:07:18.395Z,12.20
2023-05-05T07:09:50.219Z,12.20
2023-05-05T07:12:23.288Z,12.20
2023-05-05T07:14:56.807Z,12.30
2023-05-05T07:17:28.438Z,12.30
2023-05-05T07:20:00.254Z,12.40
2023-05-05T07:22:32.187Z,12.40
2023-05-05T07:25:05.529Z,12.40
2023-05-05T07:27:39.972Z,12.50
2023-05-05T07:30:18.501Z,12.50
2023-05-05T07:32:51.084Z,12.60
2023-05-05T07:35:23.081Z,12.60
2023-05-05T07:37:56.495Z,12.70
2023-05-05T07:40:28.244Z,12.70
2023-05-05T07:43:01.517Z,12.80
2023-05-05T07:45:33.963Z,12.80
2023-05-05T07:48:05.958Z,12.90
2023-05-05T07:50:39.617Z,13.00
2023-05-05T07:53:14.958Z,13.20
2023-05-05T07:55:46.907Z,13.30
2023-05-05T07:58:19.939Z,13.30
2023-05-05T08:00:53.213Z,13.40
2023-05-05T08:03:25.354Z,13.40
2023-05-05T08:06:06.727Z,13.40
2023-05-05T08:08:39.589Z,13.50
2023-05-05T08:11:11.501Z,13.60
2023-05-05T08:13:44.456Z,13.70
2023-05-05T08:16:16.766Z,13.70
2023-05-05T08:18:50.215Z,13.80
2023-05-05T08:21:22.384Z,13.80
2023-05-05T08:23:53.938Z,13.80
2023-05-05T08:26:25.920Z,13.90
2023-05-05T08:29:00.787Z,14.00
2023-05-05T08:31:37.794Z,14.10
2023-05-05T08:34:09.928Z,14.20
2023-05-05T08:36:41.741Z,14.20
2023-05-05T08:39:13.572Z,14.30
2023-05-05T08:41:45.863Z,14.40
2023-05-05T08:44:18.942Z,14.50
2023-05-05T08:46:52.286Z,14.60
2023-05-05T08:49:25.370Z,14.70
2023-05-05T08:52:00.362Z,14.90
2023-05-05T08:54:35.883Z,15.00
2023-05-05T08:57:11.882Z,15.20
2023-05-05T08:59:46.008Z,15.40
2023-05-05T09:02:19.347Z,15.50
2023-05-05T09:04:51.527Z,15.60
2023-05-05T09:07:25.618Z,15.60
2023-05-05T09:09:59.697Z,15.60
2023-05-05T09:12:35.544Z,15.70
2023-05-05T09:15:11.614Z,15.80
2023-05-05T09:17:45.539Z,15.80
2023-05-05T09:20:18.503Z,15.90
2023-05-05T09:22:53.176Z,15.90
2023-05-05T09:25:25.090Z,16.00
2023-05-05T09:27:56.895Z,16.10
2023-05-05T09:30:31.383Z,16.20
2023-05-05T09:33:05.547Z,16.40
2023-05-05T09:35:54.427Z,16.50
2023-05-05T09:38:27.997Z,16.70
2023-05-05T09:40:59.814Z,16.80
2023-05-05T09:43:31.663Z,16.90
2023-05-05T09:46:12.129Z,17.10
2023-05-05T09:48:44.001Z,17.20
2023-05-05T09:51:16.128Z,17.20
2023-05-05T09:53:47.863Z,17.20
2023-05-05T09:56:19.867Z,17.40
2023-05-05T09:58:51.441Z,17.40
2023-05-05T10:01:28.449Z,17.40
2023-05-05T10:04:00.417Z,17.50
2023-05-05T10:06:47.427Z,17.50
2023-05-05T10:09:20.979Z,17.50
2023-05-05T10:11:57.284Z,17.50
2023-05-05T10:14:32.735Z,17.60
2023-05-05T10:17:08.074Z,17.60
2023-05-05T10:19:42.878Z,17.70
2023-05-05T10:22:15.067Z,17.90
2023-05-05T10:24:52.363Z,18.00
2023-05-05T10:27:29.245Z,18.10
2023-05-05T10:30:12.997Z,18.10
2023-05-05T10:33:07.878Z,18.20
2023-05-05T10:35:51.593Z,18.20
2023-05-05T10:38:25.535Z,18.30
2023-05-05T10:41:01.794Z,18.40
2023-05-05T10:43:34.740Z,18.50
2023-05-05T10:46:07.358Z,18.50
2023-05-05T10:48:48.267Z,18.50
2023-05-05T10:51:39.340Z,18.50
2023-05-05T10:54:21.938Z,18.50
2023-05-05T10:56:55.142Z,18.50
2023-05-05T10:59:48.112Z,18.60
2023-05-05T11:02:28.812Z,18.60
2023-05-05T11:05:21.291Z,18.70
2023-05-05T11:07:54.640Z,18.70
2023-05-05T11:10:26.510Z,18.90
2023-05-05T11:13:21.946Z,18.90
2023-05-05T11:15:55.384Z,18.90
2023-05-05T11:18:38.211Z,19.00
2023-05-05T11:21:18.349Z,19.00
2023-05-05T11:24:28.539Z,19.10
2023-05-05T11:27:01.307Z,19.20
2023-05-05T11:30:09.574Z,19.40
2023-05-05T11:32:41.481Z,19.60
2023-05-05T11:35:14.240Z,19.70
2023-05-05T11:38:01.900Z,19.80
2023-05-05T11:40:38.484Z,19.80
2023-05-05T11:43:12.409Z,19.80
2023-05-05T11:45:44.221Z,19.70
2023-05-05T11:48:30.770Z,19.50
2023-05-05T11:51:05.378Z,19.60
2023-05-05T11:53:42.588Z,19.60
2023-05-05T11:56:19.256Z,19.70
2023-05-05T11:59:05.732Z,19.70
2023-05-05T12:01:40.271Z,19.60
2023-05-05T12:04:15.254Z,19.70
2023-05-05T12:06:48.961Z,19.60
2023-05-05T12:09:24.304Z,19.60
2023-05-05T12:12:00.483Z,19.50
2023-05-05T12:14:34.409Z,19.50
2023-05-05T12:17:09.425Z,19.60
2023-05-05T12:19:48.147Z,19.60
2023-05-05T12:22:24.659Z,19.70
2023-05-05T12:25:03.091Z,19.70
2023-05-05T12:27:36.263Z,19.80
2023-05-05T12:30:19.240Z,19.90
2023-05-05T12:32:51.077Z,20.10
2023-05-05T12:35:22.823Z,20.20
2023-05-05T12:37:54.748Z,20.20
2023-05-05T12:40:49.606Z,20.30
2023-05-05T12:43:35.517Z,20.40
2023-05-05T12:46:07.102Z,20.50
2023-05-05T12:48:44.453Z,20.60
2023-05-05T12:51:23.034Z,20.60
2023-05-05T12:54:07.443Z,20.70
2023-05-05T12:56:44.055Z,20.90
2023-05-05T12:59:32.813Z,20.80
2023-05-05T13:02:05.101Z,20.90
2023-05-05T13:04:48.468Z,20.90
2023-05-05T13:07:21.695Z,21.00
2023-05-05T13:10:10.488Z,21.00
2023-05-05T13:12:43.452Z,21.20
2023-05-05T13:15:17.729Z,21.30
2023-05-05T13:17:49.614Z,21.30
2023-05-05T13:20:21.384Z,21.30
2023-05-05T13:22:54.742Z,21.20
2023-05-05T13:25:27.990Z,21.20
2023-05-05T13:28:00.957Z,21.30
2023-05-05T13:30:34.246Z,21.60
2023-05-05T13:33:06.268Z,21.50
2023-05-05T13:35:39.585Z,21.50
2023-05-05T13:38:11.362Z,21.50
2023-05-05T13:40:43.183Z,21.60
2023-05-05T13:43:16.174Z,21.60
2023-05-05T13:45:48.107Z,21.70
2023-05-05T13:48:21.323Z,21.70
2023-05-05T13:50:54.606Z,21.60
2023-05-05T13:53:27.909Z,21.70
2023-05-05T13:56:00.146Z,21.70
2023-05-05T13:58:34.195Z,21.80
2023-05-05T14:01:09.520Z,21.80
2023-05-05T14:03:41.205Z,21.70
2023-05-05T14:06:13.565Z,21.60
2023-05-05T14:08:46.084Z,21.60
2023-05-05T14:11:18.217Z,21.60
2023-05-05T14:13:51.922Z,21.60
2023-05-05T14:16:23.600Z,21.60
2023-05-05T14:18:57.628Z,21.60
2023-05-05T14:21:29.308Z,21.40
2023-05-05T14:24:01.160Z,21.40
2023-05-05T14:26:33.041Z,21.30
2023-05-05T14:29:06.198Z,21.20
2023-05-05T14:31:39.767Z,21.20
2023-05-05T14:34:11.714Z,21.20
2023-05-05T14:36:43.363Z,21.20
2023-05-05T14:39:16.654Z,21.20
2023-05-05T14:41:48.572Z,21.10
2023-05-05T14:44:21.811Z,21.10
2023-05-05T14:46:53.587Z,21.10
2023-05-05T14:49:25.540Z,21.10
2023-05-05T14:51:58.934Z,21.10
2023-05-05T14:54:30.778Z,21.00
2023-05-05T14:57:02.860Z,20.90
2023-05-05T14:59:36.121Z,20.80
2023-05-05T15:02:08.100Z,20.80
2023-05-05T15:04:39.924Z,20.70
2023-05-05T15:07:11.893Z,20.60
2023-05-05T15:09:43.746Z,20.60
2023-05-05T15:12:15.711Z,20.60
2023-05-05T15:14:48.624Z,20.60
2023-05-05T15:17:20.528Z,20.60
2023-05-05T15:19:52.217Z,20.50
2023-05-05T15:22:24.035Z,20.50
2023-05-05T15:24:55.839Z,20.50
2023-05-05T15:27:27.945Z,20.50
2023-05-05T15:30:01.176Z,20.50
2023-05-05T15:32:35.062Z,20.40
2023-05-05T15:35:06.962Z,20.30
2023-05-05T15:37:39.098Z,20.40
2023-05-05T15:40:13.458Z,20.40
2023-05-05T15:42:45.770Z,20.40
2023-05-05T15:45:18.868Z,20.40
2023-05-05T15:47:51.010Z,20.40
2023-05-05T15:50:23.322Z,20.40
2023-05-05T15:52:56.778Z,20.40
2023-05-05T15:55:31.257Z,20.40
2023-05-05T15:58:03.051Z,20.40
2023-05-05T16:00:35.961Z,20.40
2023-05-05T16:03:07.977Z,20.30
2023-05-05T16:05:41.699Z,20.30
2023-05-05T16:08:15.031Z,20.20
2023-05-05T16:10:46.850Z,20.10
2023-05-05T16:13:18.733Z,20.10
2023-05-05T16:15:51.796Z,19.90
2023-05-05T16:18:23.714Z,19.60
2023-05-05T16:20:55.583Z,19.50
2023-05-05T16:23:27.402Z,19.40
2023-05-05T16:26:00.979Z,19.20
2023-05-05T16:28:34.179Z,19.20
2023-05-05T16:31:09.423Z,19.20
2023-05-05T16:33:43.744Z,19.20
2023-05-05T16:36:17.810Z,19.10
2023-05-05T16:38:50.851Z,19.10
2023-05-05T16:41:23.374Z,18.90
2023-05-05T16:43:55.424Z,18.90
2023-05-05T16:46:28.577Z,18.70
2023-05-05T16:49:00.492Z,18.50
2023-05-05T16:51:32.409Z,18.40
2023-05-05T16:54:04.331Z,18.20
2023-05-05T16:56:36.728Z,18.30
2023-05-05T16:59:08.596Z,18.00
2023-05-05T17:01:43.330Z,18.00
2023-05-05T17:04:15.120Z,17.80
2023-05-05T17:06:48.305Z,17.80
2023-05-05T17:09:24.688Z,17.80
2023-05-05T17:11:56.571Z,17.70
2023-05-05T17:14:28.456Z,17.70
2023-05-05T17:17:01.504Z,17.70
2023-05-05T17:19:33.384Z,17.60
2023-05-05T17:22:06.678Z,17.50
2023-05-05T17:24:39.923Z,17.60
2023-05-05T17:27:12.713Z,17.60
2023-05-05T17:29:44.634Z,17.50
2023-05-05T17:32:18.293Z,17.60
2023-05-05T17:34:50.142Z,17.60
2023-05-05T17:37:22.076Z,17.50
2023-05-05T17:39:53.879Z,17.40
2023-05-05T17:42:27.019Z,17.40
2023-05-05T17:44:58.603Z,17.20
2023-05-05T17:47:31.903Z,17.30
2023-05-05T17:50:03.609Z,17.30
2023-05-05T17:52:35.472Z,17.30
2023-05-05T17:55:07.749Z,17.30
2023-05-05T17:57:39.915Z,17.40
2023-05-05T18:00:13.710Z,17.20
2023-05-05T18:02:46.749Z,17.10
2023-05-05T18:05:19.010Z,17.00
2023-05-05T18:07:50.877Z,17.00
2023-05-05T18:10:24.042Z,17.10
2023-05-05T18:12:55.852Z,17.20
2023-05-05T18:15:29.727Z,16.90
2023-05-05T18:18:03.458Z,16.80
2023-05-05T18:20:36.868Z,16.80
2023-05-05T18:23:08.764Z,16.80
2023-05-05T18:25:41.458Z,16.70
2023-05-05T18:28:13.312Z,16.70
2023-05-05T18:30:45.280Z,16.70
2023-05-05T18:33:18.303Z,16.70
2023-05-05T18:35:50.144Z,16.70
2023-05-05T18:38:22.221Z,16.70
2023-05-05T18:40:54.008Z,16.70
2023-05-05T18:43:25.838Z,16.60
2023-05-05T18:45:57.833Z,16.60
2023-05-05T18:48:31.040Z,16.50
2023-05-05T18:51:06.974Z,16.50
2023-05-05T18:53:39.266Z,16.40
2023-05-05T18:56:11.022Z,16.30
2023-05-05T18:58:42.896Z,16.30
2023-05-05T19:01:14.816Z,16.30
2023-05-05T19:03:51.419Z,16.20
2023-05-05T19:06:23.539Z,16.20
2023-05-05T19:08:55.413Z,16.20
2023-05-05T19:11:27.298Z,16.10
2023-05-05T19:13:59.230Z,16.00
2023-05-05T19:16:31.178Z,16.00
2023-05-05T19:19:04.372Z,16.00
2023-05-05T19:21:36.323Z,15.80
2023-05-05T19:24:09.609Z,15.80
2023-05-05T19:26:41.398Z,15.80
2023-05-05T19:29:13.314Z,15.80
2023-05-05T19:31:46.718Z,15.70
2023-05-05T19:34:19.702Z,15.80
2023-05-05T19:36:51.619Z,15.80
2023-05-05T19:39:23.436Z,15.80
2023-05-05T19:41:55.329Z,15.70
2023-05-05T19:44:27.067Z,15.70
2023-05-05T19:46:59.011Z,15.60
2023-05-05T19:49:32.008Z,15.60
2023-05-05T19:52:03.928Z,15.60
2023-05-05T19:54:36.079Z,15.60
2023-05-05T19:57:07.701Z,15.60
2023-05-05T19:59:39.596Z,15.60
2023-05-05T20:02:12.161Z,15.50
2023-05-05T20:04:45.956Z,15.50
2023-05-05T20:07:17.890Z,15.40
2023-05-05T20:09:49.874Z,15.50
2023-05-05T20:12:23.061Z,15.50
2023-05-05T20:14:54.952Z,15.40
2023-05-05T20:17:26.846Z,15.40
2023-05-05T20:20:00.062Z,15.50
2023-05-05T20:22:31.978Z,15.50
2023-05-05T20:25:03.984Z,15.50
2023-05-05T20:27:36.143Z,15.60
2023-05-05T20:30:10.764Z,15.50
2023-05-05T20:32:43.462Z,15.60
2023-05-05T20:35:16.751Z,15.60
2023-05-05T20:37:48.745Z,15.40
2023-05-05T20:40:20.732Z,15.40
2023-05-05T20:42:52.362Z,15.40
2023-05-05T20:45:24.974Z,15.50
2023-05-05T20:47:56.654Z,15.50
2023-05-05T20:50:29.648Z,15.40
2023-05-05T20:53:01.563Z,15.20
2023-05-05T20:55:33.946Z,15.20
2023-05-05T20:58:06.731Z,15.20
2023-05-05T21:00:38.723Z,15.20
2023-05-05T21:03:10.662Z,15.10
2023-05-05T21:05:44.649Z,15.10
2023-05-05T21:08:16.427Z,15.10
2023-05-05T21:10:48.216Z,15.10
2023-05-05T21:13:20.110Z,15.10
2023-05-05T21:15:51.983Z,15.00
2023-05-05T21:18:25.709Z,15.00
2023-05-05T21:20:58.970Z,15.00
2023-05-05T21:23:31.296Z,14.90
2023-05-05T21:26:05.906Z,14.90
2023-05-05T21:28:37.564Z,15.00
2023-05-05T21:31:21.684Z,14.90
2023-05-05T21:33:54.214Z,14.90
2023-05-05T21:36:27.433Z,14.80
2023-05-05T21:39:00.483Z,14.80
2023-05-05T21:41:32.329Z,14.80
2023-05-05T21:44:04.255Z,14.80
2023-05-05T21:46:36.220Z,14.80
2023-05-05T21:49:17.377Z,14.70
2023-05-05T21:51:51.169Z,14.70
2023-05-05T21:54:23.162Z,14.70
2023-05-05T21:56:55.016Z,14.70
2023-05-05T21:59:27.132Z,14.60
2023-05-05T22:01:59.104Z,14.60
2023-05-05T22:04:30.890Z,14.60
2023-05-05T22:07:03.819Z,14.60
2023-05-05T22:09:35.697Z,14.60
2023-05-05T22:12:07.553Z,14.60
2023-05-05T22:14:39.513Z,14.60
2023-05-05T22:17:11.565Z,14.50
2023-05-05T22:19:43.180Z,14.50
2023-05-05T22:22:17.367Z,14.60
2023-05-05T22:24:49.371Z,14.60
2023-05-05T22:27:21.203Z,14.50
2023-05-05T22:29:53.028Z,14.50
2023-05-05T22:32:24.971Z,14.50
2023-05-05T22:34:56.845Z,14.50
2023-05-05T22:37:29.748Z,14.40
2023-05-05T22:40:01.643Z,14.40
2023-05-05T22:42:45.289Z,14.30
2023-05-05T22:45:19.345Z,14.40
2023-05-05T22:47:51.543Z,14.30
2023-05-05T22:50:23.599Z,14.30
2023-05-05T22:52:57.139Z,14.30
2023-05-05T22:55:28.797Z,14.20
2023-05-05T22:58:00.637Z,14.30
2023-05-05T23:00:32.366Z,14.30
2023-05-05T23:03:04.295Z,14.30
2023-05-05T23:05:36.189Z,14.30
2023-05-05T23:08:09.837Z,14.20
2023-05-05T23:10:41.691Z,14.20
2023-05-05T23:13:13.607Z,14.10
2023-05-05T23:15:45.550Z,14.10
2023-05-05T23:18:17.373Z,14.10
2023-05-05T23:20:49.362Z,14.00
2023-05-05T23:23:22.544Z,14.00
2023-05-05T23:25:54.422Z,14.00
2023-05-05T23:28:26.263Z,13.80
2023-05-05T23:30:58.254Z,13.80
2023-05-05T23:33:30.120Z,14.00
2023-05-05T23:36:01.919Z,13.90
2023-05-05T23:38:35.115Z,13.80
2023-05-05T23:41:07.036Z,13.80
2023-05-05T23:43:38.897Z,13.90
2023-05-05T23:46:10.789Z,13.90
2023-05-05T23:48:42.658Z,13.80
2023-05-05T23:51:14.463Z,13.70
2023-05-05T23:53:47.406Z,13.60
2023-05-05T23:56:19.299Z,13.70
2023-05-05T23:58:52.388Z,13.60
